Time;durP1;ratioP1;P1;durP2;ratioP2;P2;SDS_P1;SDS_P2;PMS_P1;PMS_P2;Temp;Humidity;BMP_temperature;BMP_pressure;BME280_temperature;BME280_humidity;BME280_pressure;Samples;Min_cycle;Max_cycle;Signal;HPM_P1;HPM_P2
2022/10/02 00:00:08;;;;;;;11.73;8.28;;;25.50;99.90;;;;;;1816215;76;21540;-85
2022/10/02 00:02:39;;;;;;;10.50;5.53;;;25.50;99.90;;;;;;1810735;78;21162;-85
2022/10/02 00:05:13;;;;;;;9.28;4.90;;;25.50;99.90;;;;;;1835366;76;21143;-83
2022/10/02 00:07:46;;;;;;;5.10;3.90;;;25.50;99.90;;;;;;1816136;78;21096;-85
2022/10/02 00:10:19;;;;;;;11.38;7.40;;;25.50;99.90;;;;;;1824556;76;21097;-84
2022/10/02 00:12:52;;;;;;;16.75;10.70;;;25.50;99.90;;;;;;1844676;75;21128;-85
2022/10/02 00:15:25;;;;;;;12.98;8.80;;;25.50;99.90;;;;;;1828073;77;21128;-84
2022/10/02 00:17:58;;;;;;;9.33;6.62;;;25.50;99.90;;;;;;1820222;76;21140;-85
2022/10/02 00:20:31;;;;;;;12.30;5.47;;;25.50;99.90;;;;;;1819564;76;21061;-85
2022/10/02 00:23:04;;;;;;;7.75;4.90;;;25.50;99.90;;;;;;1814422;76;21238;-84
2022/10/02 00:25:37;;;;;;;8.33;5.20;;;25.50;99.90;;;;;;1830826;76;21140;-84
2022/10/02 00:28:10;;;;;;;13.40;10.55;;;25.50;99.90;;;;;;1814730;77;21080;-86
2022/10/02 00:30:44;;;;;;;8.38;5.60;;;25.60;99.90;;;;;;1809693;78;21179;-86
2022/10/02 00:33:17;;;;;;;6.97;4.67;;;25.60;99.90;;;;;;1852065;77;21147;-86
2022/10/02 00:35:50;;;;;;;8.13;4.00;;;25.60;99.90;;;;;;1832111;76;21065;-85
2022/10/02 00:38:23;;;;;;;9.20;4.50;;;25.70;99.90;;;;;;1844640;76;21245;-86
2022/10/02 00:40:56;;;;;;;8.90;6.55;;;25.70;99.90;;;;;;1800215;77;21202;-86
2022/10/02 00:43:29;;;;;;;15.48;7.97;;;25.80;99.90;;;;;;1828597;76;21134;-85
2022/10/02 00:46:01;;;;;;;15.55;9.95;;;25.80;99.90;;;;;;1813975;77;21159;-86
2022/10/02 00:48:34;;;;;;;21.15;13.05;;;25.80;99.90;;;;;;1824619;76;21142;-85
2022/10/02 00:51:05;;;;;;;16.75;10.72;;;25.90;99.90;;;;;;1780943;79;21259;-85
2022/10/02 00:53:39;;;;;;;6.90;4.62;;;25.90;99.90;;;;;;1830793;78;21148;-86
2022/10/02 00:56:08;;;;;;;5.75;3.55;;;25.90;99.90;;;;;;1817961;76;21646;-86
2022/10/02 00:58:42;;;;;;;7.25;4.30;;;26.00;99.90;;;;;;1849109;77;21132;-85
2022/10/02 01:01:15;;;;;;;5.92;3.60;;;26.00;99.90;;;;;;1835328;76;21556;-85
2022/10/02 01:03:52;;;;;;;5.83;3.40;;;26.10;99.90;;;;;;1834578;77;21139;-85
2022/10/02 01:06:22;;;;;;;5.95;3.85;;;26.10;99.90;;;;;;1821522;77;21092;-85
2022/10/02 01:08:53;;;;;;;5.90;3.27;;;26.10;99.90;;;;;;1844375;76;21132;-85
2022/10/02 01:11:25;;;;;;;5.05;3.30;;;26.20;99.90;;;;;;1810663;77;21260;-85
2022/10/02 01:13:57;;;;;;;6.22;3.37;;;26.20;99.90;;;;;;1871585;76;21599;-85
2022/10/02 01:16:30;;;;;;;6.20;3.92;;;26.20;99.90;;;;;;1842580;76;21210;-86
2022/10/02 01:19:02;;;;;;;5.97;3.80;;;26.20;99.90;;;;;;1850949;76;21174;-86
2022/10/02 01:21:35;;;;;;;8.00;3.30;;;26.20;99.90;;;;;;1842339;77;21714;-86
2022/10/02 01:24:08;;;;;;;6.35;3.65;;;26.30;99.90;;;;;;1835218;77;21147;-86
2022/10/02 01:26:39;;;;;;;6.40;3.85;;;26.30;99.90;;;;;;1838334;76;21142;-87
2022/10/02 01:29:10;;;;;;;6.90;3.52;;;26.30;99.90;;;;;;1814574;76;21146;-86
2022/10/02 01:31:42;;;;;;;7.42;3.92;;;26.30;99.90;;;;;;1739357;80;21629;-85
2022/10/02 01:34:13;;;;;;;7.72;3.65;;;26.30;99.90;;;;;;1827137;76;21124;-85
2022/10/02 01:36:45;;;;;;;4.87;3.30;;;26.40;99.90;;;;;;1836802;77;21254;-86
2022/10/02 01:39:15;;;;;;;4.37;3.10;;;26.40;99.90;;;;;;1840771;76;21158;-85
2022/10/02 01:41:46;;;;;;;4.87;2.72;;;26.50;99.90;;;;;;1816484;77;21317;-86
2022/10/02 01:44:17;;;;;;;7.05;3.30;;;26.50;99.90;;;;;;1814004;77;21218;-86
2022/10/02 01:46:50;;;;;;;6.20;3.55;;;26.50;99.90;;;;;;1829872;77;21136;-85
2022/10/02 01:49:27;;;;;;;6.00;3.22;;;26.60;99.90;;;;;;1841647;76;21128;-85
2022/10/02 01:52:00;;;;;;;7.37;3.37;;;26.60;99.90;;;;;;1843057;77;21260;-85
2022/10/02 01:54:31;;;;;;;6.05;3.37;;;26.60;99.90;;;;;;1832152;77;21175;-85
2022/10/02 01:57:05;;;;;;;5.72;3.00;;;26.70;99.90;;;;;;1834008;77;21123;-86
2022/10/02 01:59:38;;;;;;;5.70;3.95;;;26.70;99.90;;;;;;1828510;76;21217;-85
2022/10/02 02:02:11;;;;;;;5.10;3.40;;;26.80;99.90;;;;;;1836374;76;21152;-86
2022/10/02 02:04:44;;;;;;;5.03;3.05;;;26.80;99.90;;;;;;1835392;76;21987;-85
2022/10/02 02:07:17;;;;;;;6.08;3.60;;;26.90;99.90;;;;;;1804535;78;21143;-84
2022/10/02 02:09:50;;;;;;;4.85;2.90;;;26.90;99.90;;;;;;1834850;76;21501;-84
2022/10/02 02:12:23;;;;;;;5.53;3.90;;;26.90;99.90;;;;;;1832592;77;21137;-83
2022/10/02 02:14:56;;;;;;;5.55;3.45;;;26.90;99.90;;;;;;1828502;77;21246;-84
2022/10/02 02:17:29;;;;;;;4.42;3.67;;;27.00;99.90;;;;;;1817183;78;21382;-84
2022/10/02 02:20:01;;;;;;;4.83;3.50;;;27.00;99.90;;;;;;1806269;77;21171;-84
2022/10/02 02:22:34;;;;;;;6.60;3.50;;;27.10;99.90;;;;;;1814187;77;21128;-86
2022/10/02 02:25:07;;;;;;;7.03;3.30;;;27.10;99.90;;;;;;1822346;78;21100;-83
2022/10/02 02:27:40;;;;;;;6.42;4.05;;;27.20;99.90;;;;;;1801686;78;21214;-84
2022/10/02 02:30:13;;;;;;;5.62;3.12;;;27.30;99.90;;;;;;1808420;77;21180;-84
2022/10/02 02:32:47;;;;;;;5.45;3.10;;;27.40;99.90;;;;;;1803448;79;21215;-84
2022/10/02 02:35:20;;;;;;;7.75;3.50;;;27.40;99.90;;;;;;1810232;78;21221;-85
2022/10/02 02:37:53;;;;;;;5.85;3.50;;;27.60;99.90;;;;;;1847217;75;21171;-85
2022/10/02 02:40:27;;;;;;;7.65;4.00;;;27.70;99.90;;;;;;1795409;79;21104;-84
2022/10/02 02:43:00;;;;;;;4.83;3.35;;;27.80;99.90;;;;;;1833019;77;21148;-85
2022/10/02 02:45:33;;;;;;;6.05;3.10;;;27.90;99.90;;;;;;1816118;77;21111;-85
2022/10/02 02:48:06;;;;;;;4.83;3.20;;;28.00;99.90;;;;;;1827753;77;21064;-86
2022/10/02 02:50:38;;;;;;;7.37;3.25;;;28.10;99.90;;;;;;1813312;78;21199;-87
2022/10/02 02:53:09;;;;;;;7.90;3.35;;;28.10;99.90;;;;;;1819576;77;21134;-87
2022/10/02 02:55:42;;;;;;;7.37;3.25;;;28.10;99.90;;;;;;1805355;77;21156;-87
2022/10/02 02:58:14;;;;;;;5.72;3.52;;;28.20;99.90;;;;;;1852550;76;21137;-87
2022/10/02 03:00:45;;;;;;;7.33;4.30;;;28.20;99.90;;;;;;1814069;79;21119;-87
2022/10/02 03:03:17;;;;;;;6.83;3.92;;;28.10;99.90;;;;;;1810763;79;21160;-88
2022/10/02 03:05:50;;;;;;;6.80;3.62;;;28.10;99.90;;;;;;1823916;76;21254;-87
2022/10/02 03:08:23;;;;;;;7.15;3.67;;;28.10;99.90;;;;;;1848055;77;21132;-88
2022/10/02 03:10:56;;;;;;;6.97;3.52;;;28.00;99.90;;;;;;1853850;76;21100;-86
2022/10/02 03:13:29;;;;;;;7.83;3.58;;;28.00;99.90;;;;;;1806908;77;21155;-85
2022/10/02 03:16:01;;;;;;;4.30;2.83;;;28.00;99.90;;;;;;1834143;77;21539;-84
2022/10/02 03:18:34;;;;;;;4.12;3.00;;;28.00;99.90;;;;;;1842008;76;21211;-83
2022/10/02 03:21:07;;;;;;;5.92;3.10;;;27.90;99.90;;;;;;1834237;76;21557;-84
2022/10/02 03:23:39;;;;;;;7.60;3.50;;;27.90;99.90;;;;;;1811722;78;21149;-85
2022/10/02 03:26:10;;;;;;;5.40;3.30;;;27.90;99.90;;;;;;1815341;78;21111;-86
2022/10/02 03:28:43;;;;;;;5.12;3.37;;;27.80;99.90;;;;;;1817890;77;21134;-84
2022/10/02 03:31:18;;;;;;;4.53;2.92;;;27.80;99.90;;;;;;1794771;77;21139;-84
2022/10/02 03:33:52;;;;;;;6.95;3.25;;;27.80;99.90;;;;;;1782952;77;21146;-84
2022/10/02 03:36:24;;;;;;;4.58;2.92;;;27.80;99.90;;;;;;1830868;76;21170;-83
2022/10/02 03:38:57;;;;;;;5.75;2.85;;;27.80;99.90;;;;;;1780770;80;21139;-84
2022/10/02 03:41:29;;;;;;;4.10;2.67;;;27.80;99.90;;;;;;1789886;78;21221;-84
2022/10/02 03:43:59;;;;;;;4.40;2.65;;;27.80;99.90;;;;;;1827943;78;21151;-83
2022/10/02 03:46:30;;;;;;;4.65;2.95;;;27.90;99.90;;;;;;1831641;77;21182;-75
2022/10/02 03:49:02;;;;;;;4.55;3.02;;;27.90;99.90;;;;;;1828526;78;21175;-75
2022/10/02 03:51:33;;;;;;;6.72;3.22;;;27.90;99.90;;;;;;1826145;76;21088;-75
2022/10/02 03:54:05;;;;;;;4.42;2.77;;;27.90;99.90;;;;;;1837855;78;21131;-75
2022/10/02 03:56:38;;;;;;;5.87;3.35;;;28.00;99.90;;;;;;1847385;77;21543;-75
2022/10/02 03:59:11;;;;;;;3.25;2.50;;;28.10;99.90;;;;;;1832719;76;21141;-75
2022/10/02 04:01:45;;;;;;;4.92;3.30;;;28.20;99.90;;;;;;1835674;76;21658;-75
2022/10/02 04:04:20;;;;;;;6.22;3.05;;;28.40;99.90;;;;;;1833172;78;21203;-75
2022/10/02 04:06:53;;;;;;;5.00;2.30;;;28.40;99.90;;;;;;1815382;77;21174;-74
2022/10/02 04:09:26;;;;;;;5.12;2.70;;;28.50;99.90;;;;;;1820886;77;22145;-75
2022/10/02 04:11:59;;;;;;;3.85;2.60;;;28.50;99.90;;;;;;1814079;77;21689;-75
2022/10/02 04:14:33;;;;;;;4.53;2.90;;;28.50;99.90;;;;;;1828456;77;21619;-75
2022/10/02 04:17:06;;;;;;;5.10;3.00;;;28.50;99.90;;;;;;1799919;78;21225;-74
2022/10/02 04:19:40;;;;;;;4.58;2.80;;;28.50;99.90;;;;;;1838512;76;21214;-75
2022/10/02 04:22:13;;;;;;;5.90;3.08;;;28.50;99.90;;;;;;1808124;79;21746;-74
2022/10/02 04:24:47;;;;;;;5.37;2.70;;;28.50;99.90;;;;;;1808268;77;21651;-75
2022/10/02 04:27:20;;;;;;;6.80;3.05;;;28.50;99.90;;;;;;1845187;76;21136;-75
2022/10/02 04:29:54;;;;;;;5.28;2.70;;;28.50;99.90;;;;;;1853112;76;21210;-75
2022/10/02 04:32:27;;;;;;;5.45;3.00;;;28.40;99.90;;;;;;1813411;77;21156;-79
2022/10/02 04:34:59;;;;;;;5.37;2.80;;;28.40;99.90;;;;;;1857814;76;22035;-76
2022/10/02 04:37:32;;;;;;;4.45;2.90;;;28.40;99.90;;;;;;1830472;77;21630;-75
2022/10/02 04:40:06;;;;;;;5.65;3.10;;;28.40;99.90;;;;;;1841787;77;21132;-76
2022/10/02 04:42:39;;;;;;;6.22;3.17;;;28.30;99.90;;;;;;1833593;77;21662;-76
2022/10/02 04:45:12;;;;;;;7.90;3.72;;;28.30;99.90;;;;;;1813408;77;21182;-74
2022/10/02 04:47:46;;;;;;;6.10;4.20;;;28.30;99.90;;;;;;1834779;77;21650;-77
2022/10/02 04:50:19;;;;;;;5.47;3.20;;;28.20;99.90;;;;;;1824976;78;21623;-76
2022/10/02 04:52:52;;;;;;;7.60;4.42;;;28.10;99.90;;;;;;1815478;77;21120;-77
2022/10/02 04:55:25;;;;;;;5.10;3.37;;;28.00;99.90;;;;;;1832076;78;21229;-76
2022/10/02 04:57:58;;;;;;;5.90;4.00;;;27.80;99.90;;;;;;1810369;78;21715;-76
2022/10/02 05:00:31;;;;;;;6.15;3.47;;;27.80;99.90;;;;;;1837797;77;21124;-75
2022/10/02 05:03:05;;;;;;;7.05;3.30;;;27.70;99.90;;;;;;1815299;78;22250;-75
2022/10/02 05:05:38;;;;;;;6.10;2.83;;;27.60;99.90;;;;;;1839472;76;21210;-74
2022/10/02 05:08:11;;;;;;;10.03;4.45;;;27.50;99.90;;;;;;1820612;78;21168;-74
2022/10/02 05:10:44;;;;;;;11.35;5.22;;;27.40;99.90;;;;;;1847421;76;21647;-74
2022/10/02 05:13:17;;;;;;;13.03;4.67;;;27.30;99.90;;;;;;1832674;76;21689;-75
2022/10/02 05:15:48;;;;;;;6.85;3.50;;;27.10;99.90;;;;;;1820778;77;21143;-75
2022/10/02 05:18:19;;;;;;;8.98;4.30;;;27.00;99.90;;;;;;1849742;76;21132;-74
2022/10/02 05:20:53;;;;;;;13.40;4.75;;;26.80;99.90;;;;;;1833103;76;21706;-74
2022/10/02 05:23:24;;;;;;;6.95;3.08;;;26.70;99.90;;;;;;1804476;78;21107;-76
2022/10/02 05:25:57;;;;;;;6.15;2.27;;;26.50;99.90;;;;;;1815806;77;21230;-75
2022/10/02 05:28:30;;;;;;;7.65;2.58;;;26.40;99.90;;;;;;1753542;81;21189;-75
2022/10/02 05:31:03;;;;;;;4.75;2.33;;;26.30;99.90;;;;;;1847089;76;21225;-75
2022/10/02 05:33:36;;;;;;;4.87;2.70;;;26.20;99.90;;;;;;1833888;76;21194;-75
2022/10/02 05:36:07;;;;;;;5.92;3.17;;;26.20;99.90;;;;;;1855783;76;21685;-74
2022/10/02 05:38:40;;;;;;;6.40;2.47;;;26.30;99.90;;;;;;1841610;76;21087;-74
2022/10/02 05:41:12;;;;;;;5.00;2.00;;;26.20;99.90;;;;;;1829146;77;21595;-74
2022/10/02 05:43:45;;;;;;;4.00;1.40;;;26.30;99.90;;;;;;1844931;77;21116;-74
2022/10/02 05:46:18;;;;;;;4.30;1.22;;;26.20;99.90;;;;;;1848137;76;21642;-73
2022/10/02 05:48:52;;;;;;;2.95;1.77;;;26.30;99.90;;;;;;1868266;76;21140;-73
2022/10/02 05:51:23;;;;;;;3.95;2.10;;;26.30;99.90;;;;;;1863878;77;21171;-74
2022/10/02 05:53:56;;;;;;;3.98;2.30;;;26.40;99.90;;;;;;1831889;78;21587;-73
2022/10/02 05:56:30;;;;;;;6.03;2.00;;;26.40;99.90;;;;;;1813541;77;21140;-74
2022/10/02 05:59:04;;;;;;;4.03;2.95;;;26.40;99.90;;;;;;1833917;78;21635;-74
2022/10/02 06:01:37;;;;;;;6.03;2.58;;;26.50;99.90;;;;;;1832629;77;21152;-73
2022/10/02 06:04:10;;;;;;;3.37;2.30;;;26.50;99.90;;;;;;1818999;76;21132;-73
2022/10/02 06:06:44;;;;;;;3.17;2.10;;;26.60;99.90;;;;;;1825761;77;21679;-73
2022/10/02 06:09:16;;;;;;;3.50;2.22;;;26.60;99.90;;;;;;1832411;78;21128;-73
2022/10/02 06:11:51;;;;;;;5.28;2.75;;;26.60;99.90;;;;;;1824589;76;21706;-73
2022/10/02 06:14:26;;;;;;;8.30;2.85;;;26.60;99.90;;;;;;1871950;76;21127;-73
2022/10/02 06:16:58;;;;;;;4.10;3.02;;;26.60;99.90;;;;;;1856521;76;21174;-73
2022/10/02 06:19:32;;;;;;;4.62;2.40;;;26.60;99.90;;;;;;1840178;76;21120;-74
2022/10/02 06:22:05;;;;;;;4.65;2.22;;;26.60;99.90;;;;;;1847510;76;21615;-74
2022/10/02 06:24:39;;;;;;;4.80;1.85;;;26.60;99.90;;;;;;1815062;78;21643;-73
2022/10/02 06:27:12;;;;;;;3.05;1.70;;;26.60;99.90;;;;;;1859931;76;21210;-74
2022/10/02 06:29:45;;;;;;;3.22;1.90;;;26.50;99.90;;;;;;1860704;77;21695;-73
2022/10/02 06:32:17;;;;;;;4.10;1.92;;;26.50;99.90;;;;;;1829569;77;21591;-73
2022/10/02 06:34:48;;;;;;;8.40;2.52;;;26.40;99.90;;;;;;1824607;77;21072;-73
2022/10/02 06:37:21;;;;;;;5.60;2.60;;;26.40;99.90;;;;;;1816720;76;21148;-73
2022/10/02 06:39:55;;;;;;;4.28;1.82;;;26.30;99.90;;;;;;1782252;78;21162;-73
2022/10/02 06:42:26;;;;;;;3.80;2.12;;;26.30;99.90;;;;;;1841583;77;21160;-74
2022/10/02 06:45:02;;;;;;;6.50;2.30;;;26.30;99.90;;;;;;1826823;77;21148;-73
2022/10/02 06:47:35;;;;;;;5.97;2.20;;;26.20;99.90;;;;;;1813568;77;21616;-73
2022/10/02 06:50:09;;;;;;;6.03;2.20;;;26.30;99.90;;;;;;1817692;78;21159;-73
2022/10/02 06:52:43;;;;;;;4.90;2.22;;;26.20;99.90;;;;;;1809581;77;21214;-73
2022/10/02 06:55:15;;;;;;;4.10;2.22;;;26.30;99.90;;;;;;1810331;78;21611;-73
2022/10/02 06:57:47;;;;;;;3.98;1.92;;;26.30;99.90;;;;;;1810723;78;21160;-73
2022/10/02 07:00:21;;;;;;;4.28;2.10;;;26.20;99.90;;;;;;1800766;79;21136;-73
2022/10/02 07:02:54;;;;;;;5.85;2.37;;;26.20;99.90;;;;;;1815114;76;21244;-73
2022/10/02 07:05:27;;;;;;;5.22;2.55;;;26.20;99.90;;;;;;1826833;76;21076;-73
2022/10/02 07:08:00;;;;;;;9.55;4.20;;;26.20;99.90;;;;;;1811241;78;21120;-73
2022/10/02 07:10:34;;;;;;;6.67;3.15;;;26.30;99.90;;;;;;1816659;77;21643;-73
2022/10/02 07:13:08;;;;;;;5.58;2.90;;;26.30;99.90;;;;;;1832858;77;21088;-73
2022/10/02 07:15:40;;;;;;;6.22;2.77;;;26.30;99.90;;;;;;1833157;76;21588;-73
2022/10/02 07:18:15;;;;;;;7.20;3.95;;;26.30;99.90;;;;;;1833977;78;21144;-73
2022/10/02 07:20:45;;;;;;;6.95;3.33;;;26.40;99.90;;;;;;1798399;77;21300;-74
2022/10/02 07:23:18;;;;;;;4.85;3.45;;;26.40;99.90;;;;;;1840624;75;21242;-74
2022/10/02 07:25:53;;;;;;;4.28;3.30;;;26.50;99.90;;;;;;1837249;76;21664;-73
2022/10/02 07:28:29;;;;;;;2.50;1.70;;;26.40;99.90;;;;;;1802970;77;21959;-73
2022/10/02 07:31:03;;;;;;;4.10;1.82;;;26.40;99.90;;;;;;1823514;75;21144;-74
2022/10/02 07:33:37;;;;;;;2.80;1.52;;;26.40;99.90;;;;;;1812579;78;21226;-74
2022/10/02 07:36:08;;;;;;;2.65;1.62;;;26.30;99.90;;;;;;1838811;76;21539;-73
2022/10/02 07:38:43;;;;;;;3.62;1.60;;;26.30;99.90;;;;;;1809638;78;21612;-74
2022/10/02 07:41:14;;;;;;;4.92;1.70;;;26.20;99.90;;;;;;1856300;77;21069;-73
2022/10/02 07:43:46;;;;;;;5.80;1.80;;;26.20;99.90;;;;;;1821841;76;21159;-73
2022/10/02 07:46:19;;;;;;;6.22;1.80;;;26.10;99.90;;;;;;1785452;80;21182;-73
2022/10/02 07:48:52;;;;;;;4.12;1.95;;;26.10;99.90;;;;;;1801705;79;21194;-73
2022/10/02 07:54:00;;;;;;;4.10;2.12;;;26.10;99.90;;;;;;1831861;77;21610;-73
2022/10/02 07:56:32;;;;;;;4.05;2.08;;;26.00;99.90;;;;;;1798694;78;21296;-73
2022/10/02 07:59:07;;;;;;;6.12;2.20;;;26.00;99.90;;;;;;1819205;77;21249;-74
2022/10/02 08:01:40;;;;;;;4.95;2.33;;;26.00;99.90;;;;;;1835948;77;21214;-73
2022/10/02 08:04:13;;;;;;;5.67;2.15;;;25.90;99.90;;;;;;1833998;76;21172;-73
2022/10/02 08:06:46;;;;;;;4.50;2.10;;;25.90;99.90;;;;;;1821953;78;21255;-73
2022/10/02 08:09:19;;;;;;;5.95;2.80;;;25.90;99.90;;;;;;1803581;78;21148;-73
2022/10/02 08:11:52;;;;;;;3.42;2.37;;;25.90;99.90;;;;;;1811430;77;21120;-74
2022/10/02 08:14:25;;;;;;;3.90;1.85;;;25.90;99.90;;;;;;1770813;78;21674;-73
2022/10/02 08:16:58;;;;;;;4.72;2.50;;;25.90;99.90;;;;;;1825744;77;21139;-73
2022/10/02 08:19:30;;;;;;;5.67;2.22;;;25.90;99.90;;;;;;1835981;77;21237;-72
2022/10/02 08:22:03;;;;;;;4.72;2.22;;;25.90;99.90;;;;;;1829692;76;21178;-74
2022/10/02 08:24:36;;;;;;;4.20;1.95;;;25.90;99.90;;;;;;1815028;76;21179;-73
2022/10/02 08:27:09;;;;;;;5.95;1.90;;;25.90;99.90;;;;;;1822653;78;21119;-73
2022/10/02 08:29:43;;;;;;;2.65;1.50;;;25.90;99.90;;;;;;1804496;78;21529;-73
2022/10/02 08:32:14;;;;;;;4.12;2.37;;;25.90;99.90;;;;;;1836265;77;21167;-73
2022/10/02 08:34:46;;;;;;;3.50;2.33;;;25.90;99.90;;;;;;1824939;77;21159;-73
2022/10/02 08:37:19;;;;;;;4.25;1.80;;;25.80;99.90;;;;;;1816232;78;21657;-72
2022/10/02 08:39:52;;;;;;;4.00;1.85;;;25.80;99.90;;;;;;1829546;78;21146;-72
2022/10/02 08:42:25;;;;;;;3.75;2.40;;;25.80;99.90;;;;;;1834524;78;21697;-72
2022/10/02 08:44:56;;;;;;;4.25;2.30;;;25.80;99.90;;;;;;1804336;76;21201;-71
2022/10/02 08:47:31;;;;;;;4.80;2.12;;;25.80;99.90;;;;;;1840532;76;21229;-72
2022/10/02 08:50:03;;;;;;;4.47;1.82;;;25.80;99.90;;;;;;1813921;77;21621;-73
2022/10/02 08:52:37;;;;;;;5.20;2.30;;;25.80;99.90;;;;;;1847676;77;21658;-73
2022/10/02 08:55:08;;;;;;;5.03;2.85;;;25.80;99.90;;;;;;1848272;76;21700;-72
2022/10/02 08:57:40;;;;;;;3.70;2.40;;;25.80;99.90;;;;;;1847282;77;21140;-73
2022/10/02 09:00:13;;;;;;;4.00;2.17;;;25.80;99.90;;;;;;1802058;78;21225;-73
2022/10/02 09:02:45;;;;;;;2.87;2.12;;;25.80;99.90;;;;;;1771964;79;21175;-73
2022/10/02 09:05:17;;;;;;;5.17;2.12;;;25.80;99.90;;;;;;1832658;76;21605;-73
2022/10/02 09:07:50;;;;;;;4.72;2.37;;;25.80;99.90;;;;;;1836448;76;21198;-73
2022/10/02 09:10:25;;;;;;;4.80;3.17;;;25.90;99.90;;;;;;1815901;77;21159;-73
2022/10/02 09:12:58;;;;;;;4.97;2.77;;;25.90;99.90;;;;;;1834742;77;21636;-73
2022/10/02 09:15:30;;;;;;;5.60;2.30;;;25.90;99.90;;;;;;1842212;76;21179;-73
2022/10/02 09:18:03;;;;;;;4.92;2.17;;;25.90;99.90;;;;;;1846742;76;21131;-73
2022/10/02 09:20:34;;;;;;;3.50;2.30;;;25.90;99.90;;;;;;1840993;77;21628;-73
2022/10/02 09:23:07;;;;;;;4.42;2.20;;;25.90;99.90;;;;;;1814249;78;21252;-74
2022/10/02 09:25:41;;;;;;;3.83;2.40;;;25.80;99.90;;;;;;1813980;77;21560;-73
2022/10/02 09:28:16;;;;;;;5.17;2.50;;;25.90;99.90;;;;;;1835997;78;21187;-73
2022/10/02 09:30:47;;;;;;;3.80;2.40;;;25.90;99.90;;;;;;1843216;76;21224;-73
2022/10/02 09:33:20;;;;;;;5.00;2.85;;;25.80;99.90;;;;;;1851869;77;21234;-74
2022/10/02 09:38:37;;;;;;;4.90;2.05;;;25.80;99.90;;;;;;1922674;73;21648;-72
2022/10/02 09:41:10;;;;;;;5.28;2.70;;;25.80;99.90;;;;;;1911504;75;21136;-73
2022/10/02 09:43:43;;;;;;;4.65;2.70;;;25.80;99.90;;;;;;1912842;73;21629;-73
2022/10/02 09:46:18;;;;;;;5.33;2.80;;;25.80;99.90;;;;;;1890104;74;21155;-72
2022/10/02 09:48:51;;;;;;;4.53;2.45;;;25.90;99.90;;;;;;1924417;73;21127;-73
2022/10/02 09:51:25;;;;;;;5.45;2.77;;;25.80;99.90;;;;;;1934830;73;21109;-73
2022/10/02 09:53:58;;;;;;;4.65;3.52;;;25.80;99.90;;;;;;1901314;73;21602;-73
2022/10/02 09:56:33;;;;;;;4.47;3.15;;;25.80;99.90;;;;;;1915294;75;21124;-74
2022/10/02 09:59:06;;;;;;;4.97;2.85;;;25.90;99.90;;;;;;1918241;74;21586;-74
2022/10/02 10:01:36;;;;;;;4.42;2.65;;;25.90;99.90;;;;;;1916946;73;21088;-73
2022/10/02 10:04:11;;;;;;;5.83;2.80;;;25.80;99.90;;;;;;1927744;73;21177;-74
2022/10/02 10:06:43;;;;;;;4.97;2.60;;;25.80;99.90;;;;;;1929180;73;21601;-74
2022/10/02 10:09:16;;;;;;;4.37;2.67;;;25.80;99.90;;;;;;1901977;73;21711;-73
2022/10/02 10:11:49;;;;;;;5.12;2.47;;;25.80;99.90;;;;;;1923804;73;21138;-74
2022/10/02 10:14:24;;;;;;;5.45;2.60;;;25.80;99.90;;;;;;1927844;73;21153;-73
2022/10/02 10:16:55;;;;;;;3.90;2.15;;;25.80;99.90;;;;;;1945255;73;21617;-73
2022/10/02 10:19:30;;;;;;;3.83;2.60;;;25.80;99.90;;;;;;1953405;73;21164;-80
2022/10/02 10:22:03;;;;;;;4.62;2.67;;;25.70;99.90;;;;;;1918576;74;21064;-74
2022/10/02 10:24:36;;;;;;;4.55;2.45;;;25.70;99.90;;;;;;1922045;74;21556;-73
2022/10/02 10:27:09;;;;;;;4.65;2.08;;;25.70;99.90;;;;;;1936069;73;21154;-73
2022/10/02 10:29:44;;;;;;;6.12;2.95;;;25.80;99.90;;;;;;1922713;73;21198;-74
2022/10/02 10:32:17;;;;;;;6.47;2.50;;;25.70;99.90;;;;;;1929798;73;21650;-74
2022/10/02 10:34:49;;;;;;;4.33;2.30;;;25.70;99.90;;;;;;1922014;73;21103;-73
2022/10/02 10:40:15;;;;;;;7.17;2.35;;;25.70;99.90;;;;;;1915811;74;21708;-73
2022/10/02 10:42:48;;;;;;;4.28;2.20;;;25.70;99.90;;;;;;1864829;76;21221;-73
2022/10/02 10:45:22;;;;;;;5.85;2.40;;;25.70;99.90;;;;;;1864431;75;21082;-73
2022/10/02 10:47:56;;;;;;;4.83;2.45;;;25.70;99.90;;;;;;1860996;76;22370;-72
2022/10/02 10:50:34;;;;;;;5.95;2.50;;;25.60;99.90;;;;;;1895560;75;21665;-72
2022/10/02 10:53:02;;;;;;;5.10;2.40;;;25.70;99.90;;;;;;1908490;74;21664;-72
2022/10/02 10:55:36;;;;;;;5.35;2.67;;;25.60;99.90;;;;;;1909404;74;21149;-72
2022/10/02 10:58:10;;;;;;;6.25;2.70;;;25.60;99.90;;;;;;1905878;74;21597;-72
2022/10/02 11:00:42;;;;;;;6.22;3.10;;;25.60;99.90;;;;;;1912826;73;21062;-72
2022/10/02 11:03:15;;;;;;;7.42;2.83;;;25.60;99.90;;;;;;1901105;74;21629;-72
2022/10/02 11:05:50;;;;;;;4.30;2.85;;;25.60;99.90;;;;;;1915247;73;21595;-73
2022/10/02 11:08:23;;;;;;;5.55;2.40;;;25.60;99.90;;;;;;1959546;73;21587;-73
2022/10/02 11:10:58;;;;;;;5.20;2.35;;;25.60;99.90;;;;;;1959146;73;21571;-72
2022/10/02 11:13:32;;;;;;;5.25;2.75;;;25.60;99.90;;;;;;1929278;73;21058;-73
2022/10/02 11:16:06;;;;;;;3.83;2.72;;;25.60;99.90;;;;;;1905610;75;21644;-72
2022/10/02 11:18:37;;;;;;;4.58;3.15;;;25.60;99.90;;;;;;1921890;73;21170;-72
2022/10/02 11:21:11;;;;;;;5.47;2.70;;;25.60;99.90;;;;;;1908266;74;21605;-72
2022/10/02 11:23:45;;;;;;;5.45;3.00;;;25.60;99.90;;;;;;1907311;73;21631;-74
2022/10/02 11:26:20;;;;;;;9.78;3.55;;;25.60;99.90;;;;;;1951166;73;21151;-72
2022/10/02 11:28:57;;;;;;;5.55;3.30;;;25.60;99.90;;;;;;1946536;73;21494;-84
2022/10/02 11:31:25;;;;;;;5.55;3.10;;;25.60;99.90;;;;;;1903943;75;21166;-83
2022/10/02 11:33:57;;;;;;;6.95;3.20;;;25.60;99.90;;;;;;1878281;76;21172;-85
2022/10/02 11:36:41;;;;;;;7.72;3.85;;;25.60;99.90;;;;;;1894169;75;21168;-84
2022/10/02 11:39:04;;;;;;;6.17;3.25;;;25.60;99.90;;;;;;1909361;74;21125;-83
2022/10/02 11:41:42;;;;;;;4.78;3.33;;;25.60;99.90;;;;;;1911374;74;21183;-83
2022/10/02 11:44:13;;;;;;;4.65;3.40;;;25.60;99.90;;;;;;1871822;75;21206;-83
2022/10/02 11:46:51;;;;;;;6.70;3.67;;;25.60;99.90;;;;;;1910558;74;21049;-83
2022/10/02 11:49:25;;;;;;;9.70;5.30;;;25.60;99.90;;;;;;1902839;75;21128;-84
2022/10/02 11:51:57;;;;;;;6.75;3.90;;;25.50;99.90;;;;;;1905355;75;21171;-85
2022/10/02 11:54:32;;;;;;;7.90;3.70;;;25.50;99.90;;;;;;1914007;73;21092;-84
2022/10/02 11:57:08;;;;;;;6.33;3.20;;;25.60;99.90;;;;;;1851747;75;21138;-85
2022/10/02 11:59:39;;;;;;;6.05;3.22;;;25.60;99.90;;;;;;1909487;75;21147;-83
2022/10/02 12:02:11;;;;;;;5.97;3.20;;;25.60;99.90;;;;;;1902429;75;21107;-86
2022/10/02 12:04:51;;;;;;;4.87;3.33;;;25.60;99.90;;;;;;1884343;73;21219;-82
2022/10/02 12:07:23;;;;;;;5.78;3.60;;;25.60;99.90;;;;;;1917748;73;21567;-84
2022/10/02 12:09:56;;;;;;;7.58;4.35;;;25.60;99.90;;;;;;1924299;73;21131;-84
2022/10/02 12:12:29;;;;;;;6.92;3.58;;;25.60;99.90;;;;;;1914373;73;21084;-85
2022/10/02 12:15:02;;;;;;;6.40;4.03;;;25.60;99.90;;;;;;1913475;73;21151;-84
2022/10/02 12:17:32;;;;;;;6.03;3.80;;;25.60;99.90;;;;;;1917227;73;21147;-84
2022/10/02 12:27:50;;;;;;;6.70;3.95;;;25.70;99.90;;;;;;1907524;73;21105;-83
2022/10/02 12:30:23;;;;;;;5.65;3.85;;;25.70;99.90;;;;;;1905961;73;21182;-84
2022/10/02 12:35:49;;;;;;;7.65;3.50;;;25.60;99.90;;;;;;1832750;77;21684;-83
2022/10/02 12:38:22;;;;;;;5.97;3.47;;;25.70;99.90;;;;;;1859630;76;21729;-83
2022/10/02 12:40:56;;;;;;;4.95;3.87;;;25.60;99.90;;;;;;1837167;77;21219;-83
2022/10/02 12:43:31;;;;;;;6.33;4.20;;;25.70;99.90;;;;;;1838109;76;21211;-85
2022/10/02 12:46:05;;;;;;;6.43;3.90;;;25.70;99.90;;;;;;1846202;75;21469;-84
2022/10/02 12:48:43;;;;;;;5.78;3.60;;;25.70;99.90;;;;;;1851479;76;21242;-84
2022/10/02 12:51:12;;;;;;;7.28;3.67;;;25.60;99.90;;;;;;1851463;76;21197;-83
2022/10/02 12:53:45;;;;;;;6.00;3.80;;;25.70;99.90;;;;;;1852995;76;21145;-85
2022/10/02 12:56:18;;;;;;;4.47;3.15;;;25.70;99.90;;;;;;1857458;76;21246;-85
2022/10/02 12:58:51;;;;;;;4.80;3.33;;;25.70;99.90;;;;;;1865913;75;21163;-84
2022/10/02 13:01:29;;;;;;;6.22;3.45;;;25.70;99.90;;;;;;1856761;76;21138;-84
2022/10/02 13:03:59;;;;;;;4.67;3.30;;;25.60;99.90;;;;;;1873991;75;21242;-83
2022/10/02 13:06:32;;;;;;;5.10;3.40;;;25.60;99.90;;;;;;1883384;74;21122;-86
2022/10/02 13:09:04;;;;;;;6.90;3.42;;;25.60;99.90;;;;;;1896167;74;21675;-84
2022/10/02 13:11:42;;;;;;;7.03;3.90;;;25.60;99.90;;;;;;1911710;74;21207;-85
2022/10/02 13:14:16;;;;;;;7.22;3.65;;;25.60;99.90;;;;;;1938594;73;21142;-84
2022/10/02 13:16:47;;;;;;;5.87;3.80;;;25.60;99.90;;;;;;1897850;74;21159;-84
2022/10/02 13:19:20;;;;;;;6.15;3.62;;;25.60;99.90;;;;;;1942879;73;21202;-85
2022/10/02 13:21:56;;;;;;;4.42;3.30;;;25.60;99.90;;;;;;1934304;73;21131;-86
2022/10/02 13:24:28;;;;;;;8.40;3.47;;;25.60;99.90;;;;;;1923082;73;21153;-84
2022/10/02 13:27:01;;;;;;;5.75;3.90;;;25.60;99.90;;;;;;1902111;74;21117;-83
2022/10/02 13:29:37;;;;;;;4.65;3.45;;;25.60;99.90;;;;;;1918288;74;21045;-83
2022/10/02 13:32:26;;;;;;;;;;;;;;;;;;;;;
2022/10/02 13:34:58;;;;;;;5.03;3.47;;;25.60;99.90;;;;;;1929809;73;21112;-84